Time;durP1;ratioP1;P1;durP2;ratioP2;P2;SDS_P1;SDS_P2;PMS_P1;PMS_P2;Temp;Humidity;BMP_temperature;BMP_pressure;BME280_temperature;BME280_humidity;BME280_pressure;Samples;Min_cycle;Max_cycle;Signal;HPM_P1;HPM_P2
2022/07/18 00:00:43;;;;;;;5.25;2.00;;;20.00;51.60;;;;;;5114059;28;20043;-70
2022/07/18 00:03:08;;;;;;;4.35;2.05;;;20.00;51.50;;;;;;5113772;28;20056;-70
2022/07/18 00:05:34;;;;;;;3.78;2.00;;;20.00;52.10;;;;;;5079490;28;20012;-70
2022/07/18 00:08:00;;;;;;;3.38;2.15;;;19.90;52.20;;;;;;5096023;28;20055;-70
2022/07/18 00:10:25;;;;;;;5.22;2.20;;;19.80;52.60;;;;;;5113903;28;20031;-70
2022/07/18 00:12:51;;;;;;;3.75;2.17;;;19.70;53.30;;;;;;5096002;28;20078;-70
2022/07/18 00:15:17;;;;;;;4.00;2.15;;;19.70;53.70;;;;;;5113823;28;20048;-70
2022/07/18 00:17:42;;;;;;;3.40;2.00;;;19.70;54.00;;;;;;5113835;28;20487;-70
2022/07/18 00:20:10;;;;;;;5.53;2.17;;;19.70;53.90;;;;;;5113767;28;20036;-70
2022/07/18 00:22:36;;;;;;;3.45;2.30;;;19.70;54.10;;;;;;5113746;28;20031;-70
2022/07/18 00:25:03;;;;;;;3.67;2.17;;;19.60;54.20;;;;;;5113787;28;20028;-70
2022/07/18 00:27:28;;;;;;;5.88;2.20;;;19.40;54.00;;;;;;5113648;28;20013;-70
2022/07/18 00:29:54;;;;;;;3.45;2.13;;;19.40;54.20;;;;;;5095700;28;20050;-70
2022/07/18 00:32:19;;;;;;;4.80;2.58;;;19.50;54.40;;;;;;5113760;28;20029;-70
2022/07/18 00:34:45;;;;;;;4.07;2.08;;;19.50;55.40;;;;;;5113589;28;20058;-70
2022/07/18 00:37:10;;;;;;;4.78;2.40;;;19.50;54.40;;;;;;5095721;28;20039;-70
2022/07/18 00:39:36;;;;;;;4.03;2.42;;;19.40;53.90;;;;;;5113532;28;20039;-70
2022/07/18 00:42:02;;;;;;;5.07;2.25;;;19.40;54.20;;;;;;5113515;28;20024;-70
2022/07/18 00:44:29;;;;;;;3.97;2.35;;;19.30;55.10;;;;;;5113406;28;20059;-70
2022/07/18 00:46:58;;;;;;;6.18;2.53;;;19.20;55.40;;;;;;5113484;28;20020;-70
2022/07/18 00:49:24;;;;;;;6.35;2.65;;;19.00;55.80;;;;;;5095543;28;20042;-70
2022/07/18 00:51:50;;;;;;;3.35;2.20;;;18.80;56.20;;;;;;5113464;28;20020;-70
2022/07/18 00:54:16;;;;;;;4.82;2.42;;;18.70;57.00;;;;;;5113388;28;20059;-69
2022/07/18 00:56:43;;;;;;;4.38;2.47;;;18.60;57.70;;;;;;5113333;28;20016;-70
2022/07/18 00:59:10;;;;;;;6.22;2.60;;;18.60;58.40;;;;;;5113371;28;20024;-70
2022/07/18 01:01:42;;;;;;;4.70;2.63;;;18.60;57.90;;;;;;5113340;28;20040;-70
2022/07/18 01:04:09;;;;;;;5.68;2.60;;;18.60;57.90;;;;;;5113210;28;20044;-70
2022/07/18 01:06:34;;;;;;;5.72;2.95;;;18.70;58.10;;;;;;5113335;28;20020;-70
2022/07/18 01:09:00;;;;;;;4.30;2.47;;;18.80;57.50;;;;;;5113276;28;20035;-70
2022/07/18 01:11:27;;;;;;;4.60;2.67;;;18.90;57.00;;;;;;5113264;28;20028;-70
2022/07/18 01:13:53;;;;;;;4.55;2.50;;;18.90;56.90;;;;;;5095297;28;20082;-70
2022/07/18 01:16:19;;;;;;;4.90;2.20;;;19.00;57.00;;;;;;5113326;28;20036;-70
2022/07/18 01:18:48;;;;;;;4.95;2.40;;;18.90;56.90;;;;;;5113200;28;20036;-70
2022/07/18 01:21:15;;;;;;;4.20;2.40;;;18.90;56.80;;;;;;5113161;28;20084;-70
2022/07/18 01:23:41;;;;;;;4.72;2.75;;;18.90;56.50;;;;;;5113047;28;20028;-70
2022/07/18 01:26:07;;;;;;;5.80;2.70;;;18.80;56.90;;;;;;5113123;28;20024;-70
2022/07/18 01:28:32;;;;;;;4.18;2.47;;;18.60;57.60;;;;;;5112997;28;20054;-70
2022/07/18 01:30:58;;;;;;;6.75;2.60;;;18.60;58.00;;;;;;5113058;28;20051;-70
2022/07/18 01:33:24;;;;;;;4.20;2.45;;;18.60;58.00;;;;;;5113060;28;20028;-70
2022/07/18 01:35:49;;;;;;;4.47;2.53;;;18.60;57.60;;;;;;5112997;28;20114;-70
2022/07/18 01:38:17;;;;;;;5.13;2.47;;;18.60;57.70;;;;;;5095080;28;20032;-70
2022/07/18 01:40:43;;;;;;;6.50;2.88;;;18.60;57.40;;;;;;5113398;28;20406;-70
2022/07/18 01:43:09;;;;;;;4.63;2.70;;;18.60;57.00;;;;;;5116632;28;20041;-70
2022/07/18 01:45:34;;;;;;;6.75;2.90;;;18.50;57.40;;;;;;5116652;28;20036;-70
2022/07/18 01:48:00;;;;;;;6.47;3.25;;;18.50;57.70;;;;;;5116624;28;20020;-70
2022/07/18 01:50:26;;;;;;;4.95;3.20;;;18.40;58.30;;;;;;5116562;28;20020;-70
2022/07/18 01:52:51;;;;;;;8.20;2.70;;;18.30;59.00;;;;;;5116525;28;20028;-70
2022/07/18 01:55:17;;;;;;;7.97;3.45;;;18.30;59.10;;;;;;5116477;28;20058;-70
2022/07/18 01:57:43;;;;;;;5.80;2.95;;;18.30;58.80;;;;;;5116571;28;20024;-70
2022/07/18 02:00:10;;;;;;;8.10;3.65;;;18.20;59.30;;;;;;5098543;28;20028;-70
2022/07/18 02:02:37;;;;;;;6.45;3.60;;;18.20;59.70;;;;;;5116132;28;20036;-70
2022/07/18 02:05:05;;;;;;;7.40;3.42;;;18.20;60.00;;;;;;5098411;28;20044;-70
2022/07/18 02:07:33;;;;;;;5.88;3.50;;;18.20;59.60;;;;;;5116247;28;20024;-70
2022/07/18 02:10:00;;;;;;;6.30;3.75;;;18.20;59.70;;;;;;5116196;28;20020;-70
2022/07/18 02:12:25;;;;;;;6.20;2.88;;;18.30;59.40;;;;;;5116136;28;20050;-70
2022/07/18 02:14:52;;;;;;;4.43;3.22;;;18.30;59.50;;;;;;5116094;28;20024;-70
2022/07/18 02:17:18;;;;;;;8.57;3.35;;;18.40;59.80;;;;;;5116038;28;20031;-70
2022/07/18 02:19:44;;;;;;;6.32;3.40;;;18.40;59.50;;;;;;5115972;28;20024;-70
2022/07/18 02:22:10;;;;;;;7.13;3.28;;;18.40;59.50;;;;;;5115958;28;20058;-70
2022/07/18 02:24:36;;;;;;;5.45;2.83;;;18.30;59.20;;;;;;5115837;28;20032;-70
2022/07/18 02:27:02;;;;;;;6.35;3.03;;;18.20;60.10;;;;;;5115864;28;20032;-70
2022/07/18 02:29:28;;;;;;;6.60;3.25;;;18.20;60.50;;;;;;5115777;28;20411;-70
2022/07/18 02:31:54;;;;;;;7.13;3.17;;;18.20;60.10;;;;;;5097865;28;20024;-70
2022/07/18 02:34:19;;;;;;;6.75;3.20;;;18.20;59.50;;;;;;5115740;28;20016;-70
2022/07/18 02:36:45;;;;;;;6.03;3.30;;;18.20;59.70;;;;;;5115667;28;20099;-70
2022/07/18 02:39:11;;;;;;;5.28;2.95;;;17.90;59.30;;;;;;5115644;28;20079;-70
2022/07/18 02:41:37;;;;;;;7.00;3.00;;;17.70;60.00;;;;;;5115580;28;20027;-70
2022/07/18 02:44:03;;;;;;;4.82;3.05;;;17.50;60.60;;;;;;5115449;28;20025;-70
2022/07/18 02:46:29;;;;;;;6.15;3.03;;;17.50;61.60;;;;;;5115462;28;20042;-70
2022/07/18 02:48:54;;;;;;;6.00;3.42;;;17.50;62.00;;;;;;5115451;28;20036;-70
2022/07/18 02:51:20;;;;;;;6.90;3.10;;;17.60;61.50;;;;;;5115379;28;20016;-70
2022/07/18 02:53:46;;;;;;;7.10;3.17;;;17.50;61.40;;;;;;5114305;28;20554;-70
2022/07/18 02:56:11;;;;;;;5.95;3.75;;;17.60;61.90;;;;;;5115287;28;20055;-70
2022/07/18 02:58:37;;;;;;;5.60;3.22;;;17.70;61.60;;;;;;5097257;28;20032;-70
2022/07/18 03:01:03;;;;;;;5.15;2.97;;;17.70;61.50;;;;;;5115194;28;20025;-70
2022/07/18 03:03:28;;;;;;;7.63;3.20;;;17.60;61.60;;;;;;5114901;28;20044;-70
2022/07/18 03:05:54;;;;;;;6.63;3.45;;;17.60;61.60;;;;;;5097162;28;20032;-70
2022/07/18 03:08:20;;;;;;;7.75;3.42;;;17.60;62.00;;;;;;5115193;28;20061;-70
2022/07/18 03:10:45;;;;;;;6.40;3.65;;;17.60;62.20;;;;;;5114998;28;20024;-70
2022/07/18 03:13:12;;;;;;;10.15;3.90;;;17.60;62.00;;;;;;5114953;28;20028;-70
2022/07/18 03:15:38;;;;;;;7.65;3.25;;;17.60;62.10;;;;;;5114926;28;20051;-70
2022/07/18 03:18:04;;;;;;;5.57;3.35;;;17.50;62.30;;;;;;5114872;28;20024;-70
2022/07/18 03:20:30;;;;;;;7.05;4.07;;;17.60;62.60;;;;;;5114823;28;20055;-70
2022/07/18 03:22:56;;;;;;;7.68;3.65;;;17.60;62.50;;;;;;5114752;28;20020;-70
2022/07/18 03:25:21;;;;;;;10.73;3.63;;;17.70;62.40;;;;;;5114651;28;20425;-70
2022/07/18 03:27:47;;;;;;;7.13;3.80;;;17.60;62.40;;;;;;5096631;28;20048;-70
2022/07/18 03:30:13;;;;;;;6.07;3.63;;;17.70;62.60;;;;;;5114652;28;20043;-70
2022/07/18 03:32:38;;;;;;;5.75;3.70;;;17.70;62.40;;;;;;5096748;28;20016;-70
2022/07/18 03:35:04;;;;;;;7.85;4.03;;;17.60;62.50;;;;;;5114543;28;20028;-70
2022/07/18 03:37:30;;;;;;;6.75;3.42;;;17.60;62.50;;;;;;5114512;28;20032;-70
2022/07/18 03:39:56;;;;;;;6.72;3.95;;;17.60;62.50;;;;;;5114584;28;20020;-70
2022/07/18 03:42:22;;;;;;;8.52;3.65;;;17.60;62.60;;;;;;5114395;28;20122;-70
2022/07/18 03:44:47;;;;;;;7.65;3.92;;;17.60;62.40;;;;;;5114314;28;20024;-70
2022/07/18 03:47:13;;;;;;;7.05;3.67;;;17.50;62.70;;;;;;5114295;28;20030;-70
2022/07/18 03:49:39;;;;;;;8.02;3.95;;;17.60;62.80;;;;;;5114266;28;20065;-70
2022/07/18 03:52:05;;;;;;;7.78;3.50;;;17.60;62.60;;;;;;5114242;28;20024;-70
2022/07/18 03:54:30;;;;;;;8.52;3.63;;;17.60;62.50;;;;;;5114210;28;20024;-70
2022/07/18 03:56:56;;;;;;;7.30;3.42;;;17.50;62.80;;;;;;5114141;28;20043;-70
2022/07/18 03:59:22;;;;;;;8.35;4.05;;;17.50;62.70;;;;;;5114096;28;20036;-70
2022/07/18 04:01:47;;;;;;;14.00;3.65;;;17.30;62.80;;;;;;5114091;28;20035;-70
2022/07/18 04:04:13;;;;;;;7.00;3.50;;;17.30;63.00;;;;;;5113573;28;20060;-70
2022/07/18 04:06:38;;;;;;;8.23;3.88;;;17.20;62.60;;;;;;5113982;28;20092;-70
2022/07/18 04:09:04;;;;;;;5.53;3.08;;;17.20;62.90;;;;;;5096087;28;20035;-70
2022/07/18 04:11:31;;;;;;;10.98;3.47;;;17.10;63.10;;;;;;5113928;28;20016;-70
2022/07/18 04:13:56;;;;;;;4.65;3.10;;;17.10;63.20;;;;;;5113898;28;20028;-70
2022/07/18 04:16:22;;;;;;;8.90;3.63;;;17.20;63.50;;;;;;5113860;28;20039;-70
2022/07/18 04:18:48;;;;;;;13.18;3.97;;;17.00;63.80;;;;;;5095908;28;20031;-70
2022/07/18 04:21:14;;;;;;;9.38;3.97;;;16.90;64.40;;;;;;5113772;28;20024;-70
2022/07/18 04:23:40;;;;;;;7.88;3.78;;;16.90;65.10;;;;;;5113672;28;20032;-70
2022/07/18 04:26:07;;;;;;;8.60;3.88;;;17.00;65.40;;;;;;5113826;28;20035;-70
2022/07/18 04:28:33;;;;;;;7.38;3.58;;;16.90;66.30;;;;;;5095934;28;20079;-70
2022/07/18 04:30:59;;;;;;;9.52;4.22;;;16.90;66.00;;;;;;5095793;28;20066;-70
2022/07/18 04:33:25;;;;;;;10.73;3.75;;;17.10;65.70;;;;;;5113605;28;20393;-70
2022/07/18 04:35:50;;;;;;;5.63;3.50;;;17.30;65.50;;;;;;5113630;28;20028;-70
2022/07/18 04:38:16;;;;;;;7.40;3.33;;;17.30;65.40;;;;;;5113575;28;20024;-70
2022/07/18 04:40:41;;;;;;;6.63;3.60;;;17.40;65.30;;;;;;5113682;28;20099;-70
2022/07/18 04:43:07;;;;;;;10.77;4.28;;;17.40;65.50;;;;;;5113416;28;20028;-70
2022/07/18 04:45:35;;;;;;;7.65;3.50;;;17.40;65.70;;;;;;5113490;28;20024;-70
2022/07/18 04:48:02;;;;;;;6.72;3.75;;;17.40;65.70;;;;;;5113472;28;20040;-70
2022/07/18 04:50:29;;;;;;;11.15;4.00;;;17.50;65.80;;;;;;5113439;28;20093;-70
2022/07/18 04:52:56;;;;;;;10.32;3.75;;;17.50;65.50;;;;;;5113453;28;20044;-70
2022/07/18 04:55:23;;;;;;;6.20;3.67;;;17.50;65.50;;;;;;5095547;28;20034;-70
2022/07/18 04:57:49;;;;;;;5.70;3.63;;;17.50;65.40;;;;;;5113369;28;20067;-70
2022/07/18 05:00:20;;;;;;;5.57;3.67;;;17.60;65.40;;;;;;5113384;28;20032;-70
2022/07/18 05:02:48;;;;;;;7.20;3.63;;;17.70;65.20;;;;;;5113159;28;20040;-70
2022/07/18 05:05:15;;;;;;;5.78;3.70;;;17.80;64.90;;;;;;5113217;28;20027;-69
2022/07/18 05:07:43;;;;;;;7.47;3.80;;;17.90;64.70;;;;;;5113392;28;20069;-70
2022/07/18 05:10:10;;;;;;;7.45;3.65;;;17.90;64.30;;;;;;5113280;28;20020;-70
2022/07/18 05:12:37;;;;;;;7.00;3.65;;;17.90;64.40;;;;;;5095432;28;20471;-70
2022/07/18 05:15:08;;;;;;;7.07;3.40;;;18.00;64.20;;;;;;5113246;28;20020;-70
2022/07/18 05:17:33;;;;;;;5.22;3.22;;;17.90;64.30;;;;;;5098979;28;20031;-70
2022/07/18 05:19:59;;;;;;;7.25;3.78;;;18.00;63.50;;;;;;5117156;28;20028;-70
2022/07/18 05:22:25;;;;;;;10.30;4.15;;;18.00;63.30;;;;;;5117096;28;20088;-70
2022/07/18 05:24:51;;;;;;;6.68;3.97;;;18.00;63.60;;;;;;5116976;28;20028;-70
2022/07/18 05:27:16;;;;;;;7.00;3.95;;;18.00;63.60;;;;;;5116984;28;20027;-70
2022/07/18 05:29:42;;;;;;;9.85;4.10;;;18.00;63.60;;;;;;5116920;28;20463;-70
2022/07/18 05:32:08;;;;;;;10.65;4.05;;;18.00;63.50;;;;;;5116963;28;20076;-70
2022/07/18 05:34:34;;;;;;;5.82;3.92;;;18.00;63.10;;;;;;5116863;28;20051;-70
2022/07/18 05:37:00;;;;;;;8.52;4.07;;;18.00;63.00;;;;;;5098931;28;20023;-70
2022/07/18 05:39:26;;;;;;;12.30;4.55;;;18.00;63.10;;;;;;5116758;28;20048;-69
2022/07/18 05:41:52;;;;;;;6.00;3.80;;;18.00;63.80;;;;;;5116757;28;20032;-70
2022/07/18 05:44:19;;;;;;;10.10;4.45;;;18.10;63.10;;;;;;5081954;28;20038;-69
2022/07/18 05:46:47;;;;;;;10.18;4.10;;;18.20;64.00;;;;;;5116651;28;20020;-70
2022/07/18 05:49:14;;;;;;;7.82;4.40;;;18.20;63.10;;;;;;5116570;28;20050;-70
2022/07/18 05:51:39;;;;;;;8.20;4.80;;;18.20;63.00;;;;;;5116515;28;20045;-70
2022/07/18 05:54:05;;;;;;;10.05;4.85;;;18.30;63.20;;;;;;5116533;28;20052;-70
2022/07/18 05:56:31;;;;;;;8.90;4.88;;;18.40;63.30;;;;;;5116480;28;20024;-70
2022/07/18 05:58:56;;;;;;;8.52;4.88;;;18.50;63.10;;;;;;5116410;28;20118;-69
2022/07/18 06:01:22;;;;;;;7.30;4.78;;;18.50;63.40;;;;;;5116384;28;20115;-70
2022/07/18 06:03:48;;;;;;;9.60;4.90;;;18.60;63.50;;;;;;5116075;28;20052;-70
2022/07/18 06:06:14;;;;;;;9.38;5.50;;;18.70;63.50;;;;;;5116242;28;20020;-70
2022/07/18 06:08:40;;;;;;;10.80;5.15;;;18.80;63.60;;;;;;5098522;28;20024;-70
2022/07/18 06:11:08;;;;;;;9.88;5.63;;;18.90;63.70;;;;;;5116213;28;20028;-70
2022/07/18 06:13:35;;;;;;;7.20;5.40;;;18.90;63.50;;;;;;5116104;28;20387;-69
2022/07/18 06:16:00;;;;;;;10.65;5.95;;;19.00;63.60;;;;;;5116236;28;20089;-69
2022/07/18 06:18:26;;;;;;;10.05;6.20;;;19.10;63.50;;;;;;5115995;28;20024;-70
2022/07/18 06:20:51;;;;;;;9.05;5.45;;;19.20;63.10;;;;;;5098040;28;20451;-69
2022/07/18 06:23:17;;;;;;;9.75;5.85;;;19.20;62.90;;;;;;5115846;28;20032;-70
2022/07/18 06:25:43;;;;;;;8.85;5.57;;;19.30;62.80;;;;;;5115903;28;20021;-70
2022/07/18 06:28:08;;;;;;;9.05;5.65;;;19.40;62.90;;;;;;5097784;28;20084;-70
2022/07/18 06:30:34;;;;;;;8.88;5.47;;;19.40;63.00;;;;;;5115805;28;20074;-70
2022/07/18 06:33:00;;;;;;;10.23;5.05;;;19.60;62.50;;;;;;5115750;28;20024;-70
2022/07/18 06:35:25;;;;;;;6.30;4.05;;;19.70;61.60;;;;;;5097928;28;20032;-70
2022/07/18 06:37:51;;;;;;;7.07;4.47;;;19.70;60.50;;;;;;5097782;28;20032;-70
2022/07/18 06:40:16;;;;;;;7.80;4.50;;;19.80;60.60;;;;;;5115611;28;20047;-70
2022/07/18 06:42:42;;;;;;;8.80;4.70;;;19.90;60.50;;;;;;5115607;28;20039;-71
2022/07/18 06:45:08;;;;;;;7.85;4.75;;;20.00;60.80;;;;;;5115471;28;20032;-71
2022/07/18 06:47:34;;;;;;;9.77;4.25;;;20.10;60.60;;;;;;5115462;28;20027;-71
2022/07/18 06:49:59;;;;;;;9.05;4.50;;;20.20;60.70;;;;;;5115449;28;20028;-71
2022/07/18 06:52:25;;;;;;;12.77;4.35;;;20.30;60.40;;;;;;5115377;28;20027;-71
2022/07/18 06:54:50;;;;;;;9.50;4.22;;;20.40;60.10;;;;;;5115347;28;20039;-71
2022/07/18 06:57:18;;;;;;;7.40;3.88;;;20.50;58.70;;;;;;5115449;28;20032;-71
2022/07/18 06:59:44;;;;;;;9.35;4.30;;;20.60;59.30;;;;;;5115214;28;20043;-70
2022/07/18 07:02:09;;;;;;;6.05;3.45;;;20.70;58.50;;;;;;5115350;28;20028;-71
2022/07/18 07:04:35;;;;;;;5.95;4.00;;;20.70;58.50;;;;;;5097101;28;20040;-70
2022/07/18 07:07:01;;;;;;;9.57;4.15;;;20.80;58.10;;;;;;5097188;28;20040;-71
2022/07/18 07:09:27;;;;;;;10.82;3.70;;;20.90;58.00;;;;;;5115023;28;20035;-71
2022/07/18 07:11:53;;;;;;;7.00;4.20;;;21.00;59.10;;;;;;5097325;28;20044;-71
2022/07/18 07:14:18;;;;;;;8.90;4.20;;;21.10;57.90;;;;;;5114907;28;20039;-71
2022/07/18 07:16:44;;;;;;;7.15;4.22;;;21.20;57.20;;;;;;5115066;28;20047;-70
2022/07/18 07:19:10;;;;;;;8.00;3.72;;;21.30;56.90;;;;;;5114885;28;20024;-71
2022/07/18 07:21:35;;;;;;;6.18;4.07;;;21.30;56.60;;;;;;5114828;28;20024;-71
2022/07/18 07:24:01;;;;;;;9.07;4.35;;;21.40;56.70;;;;;;5114661;28;20046;-71
2022/07/18 07:26:26;;;;;;;8.52;4.35;;;21.50;57.00;;;;;;5096765;28;20024;-71
2022/07/18 07:28:52;;;;;;;6.82;4.13;;;21.70;55.70;;;;;;5096969;28;20028;-71
2022/07/18 07:31:18;;;;;;;10.27;4.20;;;21.80;56.50;;;;;;5114639;28;20028;-70
2022/07/18 07:33:44;;;;;;;7.97;4.15;;;21.80;57.00;;;;;;5096799;28;20024;-70
2022/07/18 07:36:10;;;;;;;11.40;4.38;;;21.90;54.90;;;;;;5114539;28;20020;-71
2022/07/18 07:38:37;;;;;;;5.85;3.90;;;22.00;54.90;;;;;;5096439;28;20047;-70
2022/07/18 07:41:03;;;;;;;5.57;4.10;;;22.00;56.10;;;;;;5096831;28;20035;-70
2022/07/18 07:43:29;;;;;;;8.20;4.03;;;22.10;54.80;;;;;;5114312;28;20025;-69
2022/07/18 07:45:55;;;;;;;9.13;4.32;;;22.20;54.40;;;;;;5114324;28;20035;-70
2022/07/18 07:48:22;;;;;;;7.90;4.20;;;22.30;53.50;;;;;;5114331;28;20024;-71
2022/07/18 07:50:47;;;;;;;8.57;4.10;;;22.40;53.10;;;;;;5096284;28;20065;-71
2022/07/18 07:53:13;;;;;;;10.35;4.45;;;22.50;53.50;;;;;;5096428;28;20028;-70
2022/07/18 07:55:38;;;;;;;7.72;4.18;;;22.60;53.40;;;;;;5114140;28;20040;-71
2022/07/18 07:58:05;;;;;;;8.23;4.03;;;22.70;52.20;;;;;;5114145;28;20028;-71
2022/07/18 08:00:31;;;;;;;9.60;4.97;;;22.80;51.90;;;;;;5114134;28;20087;-70
2022/07/18 08:03:02;;;;;;;8.38;4.38;;;22.90;52.60;;;;;;5113892;28;20087;-71
2022/07/18 08:05:30;;;;;;;6.90;4.30;;;23.00;53.00;;;;;;5113973;28;20025;-71
2022/07/18 08:07:58;;;;;;;6.95;4.13;;;23.10;51.50;;;;;;5113998;28;20020;-71
2022/07/18 08:10:24;;;;;;;8.75;4.03;;;23.20;52.70;;;;;;5113945;28;20020;-71
2022/07/18 08:12:50;;;;;;;7.40;4.22;;;23.30;52.70;;;;;;5113935;28;20043;-71
2022/07/18 08:15:16;;;;;;;8.82;3.90;;;23.40;52.20;;;;;;5113900;28;20462;-71
2022/07/18 08:17:42;;;;;;;8.05;4.07;;;23.50;50.80;;;;;;5113837;28;20039;-71
2022/07/18 08:20:08;;;;;;;7.78;4.43;;;23.60;50.00;;;;;;5113817;28;20028;-71
2022/07/18 08:22:34;;;;;;;5.65;3.40;;;23.70;48.60;;;;;;5113915;28;20028;-71
2022/07/18 08:25:01;;;;;;;9.10;3.97;;;23.70;49.20;;;;;;5113672;28;20024;-71
2022/07/18 08:27:26;;;;;;;8.30;3.50;;;23.80;49.20;;;;;;5113703;28;20027;-71
2022/07/18 08:29:52;;;;;;;7.35;3.90;;;23.90;48.50;;;;;;5113733;28;20091;-71
2022/07/18 08:32:18;;;;;;;6.50;3.50;;;24.00;48.30;;;;;;5095779;28;20050;-71
2022/07/18 08:34:43;;;;;;;6.85;2.92;;;24.00;47.00;;;;;;5113770;28;20047;-71
2022/07/18 08:37:09;;;;;;;6.50;2.78;;;24.10;47.60;;;;;;5113596;28;20039;-71
2022/07/18 08:39:34;;;;;;;5.38;2.30;;;24.20;47.00;;;;;;5113545;28;20032;-71
2022/07/18 08:42:02;;;;;;;3.13;1.60;;;24.30;46.00;;;;;;5113564;28;20052;-70
2022/07/18 08:44:28;;;;;;;3.97;1.90;;;24.30;45.30;;;;;;5113470;28;20016;-71
2022/07/18 08:46:57;;;;;;;5.78;2.90;;;24.50;44.60;;;;;;5113490;28;20025;-71
2022/07/18 08:49:23;;;;;;;5.70;2.00;;;24.50;43.10;;;;;;5113436;28;20013;-71
2022/07/18 08:51:50;;;;;;;6.55;2.20;;;24.60;43.00;;;;;;5115867;28;20031;-71
2022/07/18 08:54:16;;;;;;;4.28;2.45;;;24.70;42.60;;;;;;5117688;28;20021;-71
2022/07/18 08:56:41;;;;;;;5.50;1.98;;;24.70;41.90;;;;;;5117644;28;20027;-70
2022/07/18 08:59:07;;;;;;;4.97;2.20;;;24.80;40.40;;;;;;5117595;28;20098;-71
2022/07/18 09:01:33;;;;;;;4.15;2.50;;;24.80;41.40;;;;;;5117536;28;20039;-71
2022/07/18 09:04:14;;;;;;;6.07;2.90;;;24.80;40.80;;;;;;5117264;28;20040;-71
2022/07/18 09:06:48;;;;;;;7.50;3.35;;;24.90;41.30;;;;;;5117507;28;20088;-71
2022/07/18 09:09:15;;;;;;;6.68;4.05;;;25.10;43.20;;;;;;5117462;28;20016;-71
2022/07/18 09:11:51;;;;;;;7.60;4.25;;;25.10;40.90;;;;;;5117319;28;20374;-71
2022/07/18 09:14:39;;;;;;;8.07;4.25;;;25.10;41.00;;;;;;5117293;28;20035;-71
2022/07/18 09:17:20;;;;;;;8.85;4.18;;;25.20;41.20;;;;;;5117456;28;20024;-71
2022/07/18 09:20:10;;;;;;;5.05;3.33;;;25.20;42.50;;;;;;5117401;28;20039;-70
2022/07/18 09:22:37;;;;;;;5.60;3.50;;;25.30;40.80;;;;;;5117191;28;20502;-70
2022/07/18 09:25:16;;;;;;;5.93;3.63;;;25.30;40.90;;;;;;5117181;28;20080;-71
2022/07/18 09:27:48;;;;;;;10.80;4.13;;;25.40;41.50;;;;;;5116965;28;20044;-71
2022/07/18 09:30:35;;;;;;;5.85;3.30;;;25.50;41.30;;;;;;5117097;28;20024;-71
2022/07/18 09:33:03;;;;;;;9.32;3.67;;;25.70;43.10;;;;;;5117115;28;20020;-71
2022/07/18 09:35:33;;;;;;;7.95;4.80;;;25.70;42.10;;;;;;5116911;28;20031;-71
2022/07/18 09:38:05;;;;;;;8.85;4.13;;;25.80;41.90;;;;;;5116868;28;20034;-71
2022/07/18 09:40:33;;;;;;;6.53;3.75;;;25.90;42.70;;;;;;5099046;28;20050;-71
2022/07/18 09:43:01;;;;;;;4.75;3.10;;;26.00;42.30;;;;;;5116795;28;20028;-71
2022/07/18 09:45:30;;;;;;;6.05;3.83;;;26.10;41.00;;;;;;5116662;28;20075;-71
2022/07/18 09:48:00;;;;;;;7.38;4.40;;;26.20;40.90;;;;;;5116689;28;20103;-71
2022/07/18 09:50:36;;;;;;;7.50;3.97;;;26.20;40.20;;;;;;5116648;28;20083;-71
2022/07/18 09:53:02;;;;;;;9.98;3.97;;;26.30;39.80;;;;;;5098742;28;20035;-71
2022/07/18 09:55:29;;;;;;;4.80;3.25;;;26.30;40.10;;;;;;5116495;28;20028;-71
2022/07/18 09:58:02;;;;;;;9.68;4.70;;;26.30;40.80;;;;;;5116482;28;20021;-71
2022/07/18 10:00:29;;;;;;;7.47;4.40;;;26.50;41.20;;;;;;5116488;28;20024;-71
2022/07/18 10:02:57;;;;;;;7.22;4.30;;;26.50;40.00;;;;;;5115659;28;20087;-71
2022/07/18 10:05:22;;;;;;;7.05;3.72;;;26.60;40.30;;;;;;5116261;28;20036;-71
2022/07/18 10:07:48;;;;;;;5.90;3.00;;;26.70;40.40;;;;;;5116287;28;20028;-71
2022/07/18 10:10:15;;;;;;;6.85;2.85;;;26.80;40.20;;;;;;5116255;28;20030;-71
2022/07/18 10:12:42;;;;;;;5.78;2.65;;;26.90;40.30;;;;;;5116180;28;20079;-71
2022/07/18 10:15:08;;;;;;;6.05;3.92;;;27.00;39.70;;;;;;5116144;28;20029;-71
2022/07/18 10:17:34;;;;;;;8.30;3.35;;;27.00;37.90;;;;;;5116127;28;20020;-71
2022/07/18 10:20:05;;;;;;;5.50;3.63;;;27.10;39.30;;;;;;5116011;28;20101;-71
2022/07/18 10:22:37;;;;;;;5.57;3.42;;;27.30;40.00;;;;;;5116022;28;20032;-71
2022/07/18 10:25:06;;;;;;;5.35;3.10;;;27.30;39.60;;;;;;5098060;28;20054;-71
2022/07/18 10:28:09;;;;;;;4.68;2.90;;;27.40;37.10;;;;;;5115894;28;20024;-71
2022/07/18 10:30:53;;;;;;;6.93;2.75;;;27.50;37.40;;;;;;5115901;28;20021;-71
2022/07/18 10:33:41;;;;;;;6.53;2.63;;;27.50;37.10;;;;;;5116026;28;20023;-71
2022/07/18 10:36:10;;;;;;;5.32;2.38;;;27.50;35.00;;;;;;5097815;28;20095;-71
2022/07/18 10:38:37;;;;;;;4.93;2.58;;;27.50;37.70;;;;;;5115723;28;20043;-71
2022/07/18 10:41:08;;;;;;;6.22;2.63;;;27.40;37.50;;;;;;5115664;28;20024;-71
2022/07/18 10:43:36;;;;;;;6.78;3.03;;;27.40;37.80;;;;;;5115589;28;20031;-71
2022/07/18 10:46:04;;;;;;;6.32;2.92;;;27.50;38.90;;;;;;5115547;28;20060;-71
2022/07/18 10:48:32;;;;;;;4.40;2.72;;;27.50;37.80;;;;;;5115502;28;20020;-71
2022/07/18 10:51:11;;;;;;;4.45;2.35;;;27.60;37.80;;;;;;5115449;28;20020;-71
2022/07/18 10:54:01;;;;;;;7.32;2.90;;;27.70;37.70;;;;;;5115421;28;20031;-71
2022/07/18 10:56:27;;;;;;;7.32;2.92;;;27.80;37.20;;;;;;5097429;28;20028;-71
2022/07/18 10:58:55;;;;;;;7.15;2.85;;;28.00;37.10;;;;;;5115283;28;20036;-71
2022/07/18 11:01:22;;;;;;;5.18;2.72;;;28.00;37.00;;;;;;5115293;28;20063;-71
2022/07/18 11:03:49;;;;;;;5.68;2.10;;;28.10;36.30;;;;;;5114929;28;20048;-71
2022/07/18 11:06:15;;;;;;;4.85;2.08;;;28.10;36.60;;;;;;5115168;28;20020;-71
2022/07/18 11:08:40;;;;;;;3.13;1.92;;;28.20;37.50;;;;;;5115125;28;20024;-71
2022/07/18 11:11:11;;;;;;;3.80;1.98;;;28.30;37.40;;;;;;5115059;28;20064;-71
2022/07/18 11:13:39;;;;;;;5.40;2.20;;;28.40;36.50;;;;;;5114164;28;20028;-71
2022/07/18 11:16:18;;;;;;;3.08;1.92;;;28.50;37.20;;;;;;5114956;28;20083;-71
2022/07/18 11:18:44;;;;;;;7.07;2.17;;;28.60;35.30;;;;;;5114903;28;20080;-71
2022/07/18 11:21:20;;;;;;;2.85;1.92;;;28.60;35.30;;;;;;5114909;28;20028;-71
2022/07/18 11:23:49;;;;;;;5.15;2.08;;;28.80;36.90;;;;;;5114734;28;20039;-71
2022/07/18 11:26:20;;;;;;;5.15;2.10;;;28.90;36.30;;;;;;5114763;28;20020;-71
2022/07/18 11:28:48;;;;;;;6.22;2.03;;;28.90;35.00;;;;;;5114736;28;20028;-71
2022/07/18 11:31:15;;;;;;;4.18;1.90;;;28.90;37.30;;;;;;5096774;28;20020;-71
2022/07/18 11:33:46;;;;;;;4.07;2.05;;;28.90;34.30;;;;;;5114617;28;20031;-71
2022/07/18 11:36:17;;;;;;;5.30;1.83;;;29.00;37.00;;;;;;5114635;28;20024;-71
2022/07/18 11:38:55;;;;;;;3.80;1.98;;;29.10;34.30;;;;;;5114574;28;20028;-71
2022/07/18 11:41:21;;;;;;;3.60;1.88;;;29.20;35.70;;;;;;5114490;28;20028;-72
2022/07/18 11:43:49;;;;;;;5.35;1.90;;;29.30;35.90;;;;;;5114396;28;20051;-71
2022/07/18 11:46:17;;;;;;;3.25;1.88;;;29.40;34.70;;;;;;5114388;28;20020;-71
2022/07/18 11:48:47;;;;;;;3.53;2.03;;;29.40;34.00;;;;;;5114377;28;20023;-71
2022/07/18 11:51:18;;;;;;;3.17;1.80;;;29.40;34.90;;;;;;5114261;28;20035;-71
2022/07/18 11:53:52;;;;;;;3.13;1.70;;;29.50;33.90;;;;;;5096351;28;20028;-71
2022/07/18 11:56:19;;;;;;;2.90;1.83;;;29.50;34.90;;;;;;5114221;28;20024;-71
2022/07/18 11:58:48;;;;;;;3.42;1.90;;;29.70;34.70;;;;;;5114158;28;20027;-71
2022/07/18 12:01:13;;;;;;;3.42;1.80;;;29.80;33.30;;;;;;5114011;28;20024;-71
2022/07/18 12:03:44;;;;;;;2.35;1.90;;;29.80;32.30;;;;;;5095932;28;20052;-71
2022/07/18 12:06:21;;;;;;;3.77;2.20;;;29.90;33.80;;;;;;5114245;28;20047;-71
2022/07/18 12:08:52;;;;;;;5.40;2.22;;;30.10;32.00;;;;;;5096159;28;20031;-69
2022/07/18 12:11:20;;;;;;;3.50;2.20;;;30.00;32.10;;;;;;5114174;28;20020;-69
2022/07/18 12:13:50;;;;;;;4.18;2.42;;;30.00;32.50;;;;;;5113926;28;20047;-69
2022/07/18 12:16:33;;;;;;;2.95;1.90;;;30.10;31.80;;;;;;5113964;28;20016;-69
2022/07/18 12:19:08;;;;;;;6.43;2.20;;;30.10;31.60;;;;;;5113917;28;20023;-72
2022/07/18 12:21:45;;;;;;;3.95;2.08;;;30.20;31.90;;;;;;5095878;28;20016;-70
2022/07/18 12:24:26;;;;;;;3.33;1.88;;;30.20;31.80;;;;;;5095808;28;20063;-70
2022/07/18 12:27:13;;;;;;;2.05;1.70;;;30.30;31.90;;;;;;5113727;28;20032;-70
2022/07/18 12:30:04;;;;;;;2.30;1.45;;;30.30;31.10;;;;;;5113639;28;20045;-70
2022/07/18 12:32:51;;;;;;;2.25;1.83;;;30.50;29.80;;;;;;5113753;28;20433;-70
2022/07/18 12:35:23;;;;;;;2.60;1.88;;;30.50;29.90;;;;;;5095861;28;20030;-70
2022/07/18 12:38:14;;;;;;;4.05;1.77;;;30.50;29.40;;;;;;5113661;28;20028;-70
2022/07/18 12:40:47;;;;;;;4.00;1.80;;;30.60;30.90;;;;;;5113633;28;20463;-70
2022/07/18 12:43:24;;;;;;;3.35;1.60;;;30.70;30.70;;;;;;5113638;28;20028;-70
2022/07/18 12:45:50;;;;;;;5.47;1.98;;;30.80;29.60;;;;;;5113606;28;20020;-70
2022/07/18 12:48:16;;;;;;;3.78;1.60;;;30.80;30.50;;;;;;5113659;28;20021;-70